sensor_id;sensor_type;location;lat;lon;timestamp;P1;durP1;ratioP1;P2;durP2;ratioP2
7517;SDS011;3800;48.922;9.444;2023-10-08T00:01:12;9.77;;;7.37;;
7517;SDS011;3800;48.922;9.444;2023-10-08T00:03:40;11.40;;;7.37;;
7517;SDS011;3800;48.922;9.444;2023-10-08T00:06:09;10.43;;;7.53;;
7517;SDS011;3800;48.922;9.444;2023-10-08T00:08:38;11.10;;;8.87;;
7517;SDS011;3800;48.922;9.444;2023-10-08T00:11:07;11.07;;;8.07;;
7517;SDS011;3800;48.922;9.444;2023-10-08T00:13:36;9.27;;;7.20;;
7517;SDS011;3800;48.922;9.444;2023-10-08T00:16:07;8.23;;;7.37;;
7517;SDS011;3800;48.922;9.444;2023-10-08T00:18:37;11.07;;;8.30;;
7517;SDS011;3800;48.922;9.444;2023-10-08T00:21:07;9.70;;;7.50;;
7517;SDS011;3800;48.922;9.444;2023-10-08T00:23:46;11.77;;;8.00;;
7517;SDS011;3800;48.922;9.444;2023-10-08T00:26:19;9.50;;;7.67;;
7517;SDS011;3800;48.922;9.444;2023-10-08T00:28:54;8.20;;;7.17;;
7517;SDS011;3800;48.922;9.444;2023-10-08T00:31:24;10.20;;;7.60;;
7517;SDS011;3800;48.922;9.444;2023-10-08T00:33:53;9.53;;;7.47;;
7517;SDS011;3800;48.922;9.444;2023-10-08T00:36:23;9.50;;;7.47;;
7517;SDS011;3800;48.922;9.444;2023-10-08T00:38:51;8.27;;;7.10;;
7517;SDS011;3800;48.922;9.444;2023-10-08T00:41:20;8.87;;;7.20;;
7517;SDS011;3800;48.922;9.444;2023-10-08T00:43:48;9.67;;;7.30;;
7517;SDS011;3800;48.922;9.444;2023-10-08T00:46:19;12.07;;;7.10;;
7517;SDS011;3800;48.922;9.444;2023-10-08T00:48:50;8.67;;;7.20;;
7517;SDS011;3800;48.922;9.444;2023-10-08T00:51:18;9.47;;;7.10;;
7517;SDS011;3800;48.922;9.444;2023-10-08T00:53:54;8.47;;;6.97;;
7517;SDS011;3800;48.922;9.444;2023-10-08T00:56:25;13.37;;;7.23;;
7517;SDS011;3800;48.922;9.444;2023-10-08T00:58:53;10.17;;;7.13;;
7517;SDS011;3800;48.922;9.444;2023-10-08T01:01:22;9.83;;;6.87;;
7517;SDS011;3800;48.922;9.444;2023-10-08T01:03:51;8.73;;;6.87;;
7517;SDS011;3800;48.922;9.444;2023-10-08T01:06:19;9.23;;;7.03;;
7517;SDS011;3800;48.922;9.444;2023-10-08T01:08:49;8.10;;;6.73;;
7517;SDS011;3800;48.922;9.444;2023-10-08T01:11:20;8.33;;;7.30;;
7517;SDS011;3800;48.922;9.444;2023-10-08T01:13:49;9.30;;;7.07;;
7517;SDS011;3800;48.922;9.444;2023-10-08T01:16:18;9.87;;;7.33;;
7517;SDS011;3800;48.922;9.444;2023-10-08T01:18:46;9.03;;;7.70;;
7517;SDS011;3800;48.922;9.444;2023-10-08T01:21:14;10.47;;;7.77;;
7517;SDS011;3800;48.922;9.444;2023-10-08T01:23:44;9.30;;;7.77;;
7517;SDS011;3800;48.922;9.444;2023-10-08T01:26:11;13.13;;;8.53;;
7517;SDS011;3800;48.922;9.444;2023-10-08T01:28:40;9.83;;;8.37;;
7517;SDS011;3800;48.922;9.444;2023-10-08T01:31:09;11.30;;;8.70;;
7517;SDS011;3800;48.922;9.444;2023-10-08T01:33:37;9.80;;;8.30;;
7517;SDS011;3800;48.922;9.444;2023-10-08T01:36:05;10.73;;;8.30;;
7517;SDS011;3800;48.922;9.444;2023-10-08T01:38:33;11.20;;;8.20;;
7517;SDS011;3800;48.922;9.444;2023-10-08T01:41:02;8.67;;;7.77;;
7517;SDS011;3800;48.922;9.444;2023-10-08T01:43:30;12.30;;;8.80;;
7517;SDS011;3800;48.922;9.444;2023-10-08T01:46:02;9.70;;;7.50;;
7517;SDS011;3800;48.922;9.444;2023-10-08T01:48:27;10.30;;;8.03;;
7517;SDS011;3800;48.922;9.444;2023-10-08T01:50:57;9.53;;;7.70;;
7517;SDS011;3800;48.922;9.444;2023-10-08T01:53:27;9.83;;;7.53;;
7517;SDS011;3800;48.922;9.444;2023-10-08T01:55:55;8.83;;;7.93;;
7517;SDS011;3800;48.922;9.444;2023-10-08T01:58:23;8.73;;;7.53;;
7517;SDS011;3800;48.922;9.444;2023-10-08T02:00:53;10.63;;;7.13;;
7517;SDS011;3800;48.922;9.444;2023-10-08T02:03:21;8.87;;;7.70;;
7517;SDS011;3800;48.922;9.444;2023-10-08T02:05:49;8.37;;;7.30;;
7517;SDS011;3800;48.922;9.444;2023-10-08T02:08:17;10.57;;;7.40;;
7517;SDS011;3800;48.922;9.444;2023-10-08T02:10:47;8.53;;;7.03;;
7517;SDS011;3800;48.922;9.444;2023-10-08T02:13:16;9.30;;;6.50;;
7517;SDS011;3800;48.922;9.444;2023-10-08T02:15:45;8.63;;;5.90;;
7517;SDS011;3800;48.922;9.444;2023-10-08T02:18:13;8.30;;;6.20;;
7517;SDS011;3800;48.922;9.444;2023-10-08T02:20:42;7.23;;;5.67;;
7517;SDS011;3800;48.922;9.444;2023-10-08T02:23:13;7.23;;;5.50;;
7517;SDS011;3800;48.922;9.444;2023-10-08T02:25:41;7.67;;;5.87;;
7517;SDS011;3800;48.922;9.444;2023-10-08T02:28:10;8.13;;;5.80;;
7517;SDS011;3800;48.922;9.444;2023-10-08T02:30:39;8.23;;;6.23;;
7517;SDS011;3800;48.922;9.444;2023-10-08T02:33:08;7.60;;;5.93;;
7517;SDS011;3800;48.922;9.444;2023-10-08T02:35:44;8.40;;;5.80;;
7517;SDS011;3800;48.922;9.444;2023-10-08T02:38:16;7.27;;;5.63;;
7517;SDS011;3800;48.922;9.444;2023-10-08T02:40:40;7.37;;;5.97;;
7517;SDS011;3800;48.922;9.444;2023-10-08T02:43:08;9.90;;;5.73;;
7517;SDS011;3800;48.922;9.444;2023-10-08T02:45:37;6.93;;;5.57;;
7517;SDS011;3800;48.922;9.444;2023-10-08T02:48:07;7.10;;;5.37;;
7517;SDS011;3800;48.922;9.444;2023-10-08T02:50:40;10.37;;;5.90;;
7517;SDS011;3800;48.922;9.444;2023-10-08T02:53:09;7.93;;;5.67;;
7517;SDS011;3800;48.922;9.444;2023-10-08T02:55:38;7.10;;;5.40;;
7517;SDS011;3800;48.922;9.444;2023-10-08T02:58:11;7.60;;;5.73;;
7517;SDS011;3800;48.922;9.444;2023-10-08T03:00:41;7.43;;;5.73;;
7517;SDS011;3800;48.922;9.444;2023-10-08T03:03:10;6.87;;;5.20;;
7517;SDS011;3800;48.922;9.444;2023-10-08T03:05:46;6.43;;;5.63;;
7517;SDS011;3800;48.922;9.444;2023-10-08T03:08:14;8.07;;;6.13;;
7517;SDS011;3800;48.922;9.444;2023-10-08T03:10:51;7.23;;;5.47;;
7517;SDS011;3800;48.922;9.444;2023-10-08T03:13:20;7.90;;;5.60;;
7517;SDS011;3800;48.922;9.444;2023-10-08T03:15:50;7.83;;;5.00;;
7517;SDS011;3800;48.922;9.444;2023-10-08T03:18:24;5.93;;;4.77;;
7517;SDS011;3800;48.922;9.444;2023-10-08T03:20:53;8.83;;;4.67;;
7517;SDS011;3800;48.922;9.444;2023-10-08T03:23:22;6.53;;;4.60;;
7517;SDS011;3800;48.922;9.444;2023-10-08T03:25:50;7.20;;;4.77;;
7517;SDS011;3800;48.922;9.444;2023-10-08T03:28:19;5.53;;;4.60;;
7517;SDS011;3800;48.922;9.444;2023-10-08T03:30:48;6.30;;;4.63;;
7517;SDS011;3800;48.922;9.444;2023-10-08T03:33:17;8.77;;;4.60;;
7517;SDS011;3800;48.922;9.444;2023-10-08T03:36:01;6.27;;;4.60;;
7517;SDS011;3800;48.922;9.444;2023-10-08T03:38:39;6.77;;;5.10;;
7517;SDS011;3800;48.922;9.444;2023-10-08T03:41:23;7.17;;;5.00;;
7517;SDS011;3800;48.922;9.444;2023-10-08T03:43:54;6.67;;;4.70;;
7517;SDS011;3800;48.922;9.444;2023-10-08T03:46:32;7.23;;;4.90;;
7517;SDS011;3800;48.922;9.444;2023-10-08T03:49:03;7.70;;;5.07;;
7517;SDS011;3800;48.922;9.444;2023-10-08T03:51:31;7.93;;;5.37;;
7517;SDS011;3800;48.922;9.444;2023-10-08T03:53:59;10.10;;;5.17;;
7517;SDS011;3800;48.922;9.444;2023-10-08T03:56:44;7.57;;;4.73;;
7517;SDS011;3800;48.922;9.444;2023-10-08T03:59:13;6.07;;;4.93;;
7517;SDS011;3800;48.922;9.444;2023-10-08T04:01:47;6.47;;;5.07;;
7517;SDS011;3800;48.922;9.444;2023-10-08T04:04:16;8.50;;;5.03;;
7517;SDS011;3800;48.922;9.444;2023-10-08T04:06:44;8.07;;;5.43;;
7517;SDS011;3800;48.922;9.444;2023-10-08T04:09:15;6.87;;;5.13;;
7517;SDS011;3800;48.922;9.444;2023-10-08T04:11:53;8.03;;;5.13;;
7517;SDS011;3800;48.922;9.444;2023-10-08T04:14:22;7.17;;;5.23;;
7517;SDS011;3800;48.922;9.444;2023-10-08T04:16:52;6.30;;;5.00;;
7517;SDS011;3800;48.922;9.444;2023-10-08T04:19:20;6.57;;;4.93;;
7517;SDS011;3800;48.922;9.444;2023-10-08T04:21:49;9.27;;;5.90;;
7517;SDS011;3800;48.922;9.444;2023-10-08T04:24:22;6.07;;;5.00;;
7517;SDS011;3800;48.922;9.444;2023-10-08T04:26:55;6.33;;;5.30;;
7517;SDS011;3800;48.922;9.444;2023-10-08T04:29:25;6.73;;;5.63;;
7517;SDS011;3800;48.922;9.444;2023-10-08T04:31:53;9.83;;;5.40;;
7517;SDS011;3800;48.922;9.444;2023-10-08T04:34:21;9.03;;;5.77;;
7517;SDS011;3800;48.922;9.444;2023-10-08T04:36:50;7.77;;;5.47;;
7517;SDS011;3800;48.922;9.444;2023-10-08T04:39:21;7.47;;;5.20;;
7517;SDS011;3800;48.922;9.444;2023-10-08T04:41:50;7.40;;;5.57;;
7517;SDS011;3800;48.922;9.444;2023-10-08T04:44:18;9.43;;;5.47;;
7517;SDS011;3800;48.922;9.444;2023-10-08T04:46:47;5.33;;;4.83;;
7517;SDS011;3800;48.922;9.444;2023-10-08T04:49:15;6.73;;;5.20;;
7517;SDS011;3800;48.922;9.444;2023-10-08T04:51:45;8.00;;;5.37;;
7517;SDS011;3800;48.922;9.444;2023-10-08T04:54:13;6.40;;;5.23;;
7517;SDS011;3800;48.922;9.444;2023-10-08T04:56:42;5.73;;;4.67;;
7517;SDS011;3800;48.922;9.444;2023-10-08T04:59:10;7.87;;;5.23;;
7517;SDS011;3800;48.922;9.444;2023-10-08T05:01:39;6.30;;;4.73;;
7517;SDS011;3800;48.922;9.444;2023-10-08T05:04:08;7.77;;;5.20;;
7517;SDS011;3800;48.922;9.444;2023-10-08T05:06:37;6.40;;;4.60;;
7517;SDS011;3800;48.922;9.444;2023-10-08T05:09:20;6.43;;;4.90;;
7517;SDS011;3800;48.922;9.444;2023-10-08T05:11:50;6.07;;;4.77;;
7517;SDS011;3800;48.922;9.444;2023-10-08T05:14:32;5.23;;;4.73;;
7517;SDS011;3800;48.922;9.444;2023-10-08T05:17:03;7.53;;;4.93;;
7517;SDS011;3800;48.922;9.444;2023-10-08T05:19:32;6.07;;;5.13;;
7517;SDS011;3800;48.922;9.444;2023-10-08T05:22:05;7.27;;;4.80;;
7517;SDS011;3800;48.922;9.444;2023-10-08T05:24:57;5.47;;;4.50;;
7517;SDS011;3800;48.922;9.444;2023-10-08T05:27:32;8.27;;;4.93;;
7517;SDS011;3800;48.922;9.444;2023-10-08T05:30:06;7.03;;;4.80;;
7517;SDS011;3800;48.922;9.444;2023-10-08T05:32:38;6.27;;;4.87;;
7517;SDS011;3800;48.922;9.444;2023-10-08T05:35:21;5.20;;;4.43;;
7517;SDS011;3800;48.922;9.444;2023-10-08T05:37:57;5.63;;;4.63;;
7517;SDS011;3800;48.922;9.444;2023-10-08T05:40:23;6.07;;;4.80;;
7517;SDS011;3800;48.922;9.444;2023-10-08T05:42:52;8.23;;;5.13;;
7517;SDS011;3800;48.922;9.444;2023-10-08T05:45:21;5.93;;;5.03;;
7517;SDS011;3800;48.922;9.444;2023-10-08T05:47:57;5.83;;;4.73;;
7517;SDS011;3800;48.922;9.444;2023-10-08T05:50:30;8.43;;;5.00;;
7517;SDS011;3800;48.922;9.444;2023-10-08T05:53:05;5.97;;;4.10;;
7517;SDS011;3800;48.922;9.444;2023-10-08T05:55:34;6.03;;;4.43;;
7517;SDS011;3800;48.922;9.444;2023-10-08T05:58:04;4.67;;;4.17;;
7517;SDS011;3800;48.922;9.444;2023-10-08T06:00:37;8.10;;;5.37;;
7517;SDS011;3800;48.922;9.444;2023-10-08T06:03:11;5.80;;;4.67;;
7517;SDS011;3800;48.922;9.444;2023-10-08T06:05:45;5.90;;;5.20;;
7517;SDS011;3800;48.922;9.444;2023-10-08T06:08:14;7.07;;;4.77;;
7517;SDS011;3800;48.922;9.444;2023-10-08T06:10:42;5.67;;;4.90;;
7517;SDS011;3800;48.922;9.444;2023-10-08T06:13:13;5.83;;;4.70;;
7517;SDS011;3800;48.922;9.444;2023-10-08T06:15:47;6.83;;;5.07;;
7517;SDS011;3800;48.922;9.444;2023-10-08T06:18:18;7.53;;;5.23;;
7517;SDS011;3800;48.922;9.444;2023-10-08T06:20:46;6.00;;;5.40;;
7517;SDS011;3800;48.922;9.444;2023-10-08T06:23:17;7.13;;;5.60;;
7517;SDS011;3800;48.922;9.444;2023-10-08T06:25:46;6.17;;;5.37;;
7517;SDS011;3800;48.922;9.444;2023-10-08T06:28:15;5.77;;;5.07;;
7517;SDS011;3800;48.922;9.444;2023-10-08T06:30:47;5.13;;;4.57;;
7517;SDS011;3800;48.922;9.444;2023-10-08T06:33:16;7.13;;;5.20;;
7517;SDS011;3800;48.922;9.444;2023-10-08T06:35:44;8.03;;;4.90;;
7517;SDS011;3800;48.922;9.444;2023-10-08T06:38:13;5.63;;;5.03;;
7517;SDS011;3800;48.922;9.444;2023-10-08T06:40:41;6.90;;;5.03;;
7517;SDS011;3800;48.922;9.444;2023-10-08T06:43:09;7.80;;;5.07;;
7517;SDS011;3800;48.922;9.444;2023-10-08T06:45:39;6.97;;;4.80;;
7517;SDS011;3800;48.922;9.444;2023-10-08T06:48:07;7.20;;;5.17;;
7517;SDS011;3800;48.922;9.444;2023-10-08T06:50:36;8.30;;;5.00;;
7517;SDS011;3800;48.922;9.444;2023-10-08T06:53:04;7.20;;;4.83;;
7517;SDS011;3800;48.922;9.444;2023-10-08T06:55:34;6.80;;;4.80;;
7517;SDS011;3800;48.922;9.444;2023-10-08T06:58:02;6.37;;;5.00;;
7517;SDS011;3800;48.922;9.444;2023-10-08T07:00:33;5.77;;;4.90;;
7517;SDS011;3800;48.922;9.444;2023-10-08T07:03:06;6.73;;;5.77;;
7517;SDS011;3800;48.922;9.444;2023-10-08T07:05:36;6.90;;;5.60;;
7517;SDS011;3800;48.922;9.444;2023-10-08T07:08:07;9.50;;;5.93;;
7517;SDS011;3800;48.922;9.444;2023-10-08T07:10:35;9.43;;;5.57;;
7517;SDS011;3800;48.922;9.444;2023-10-08T07:13:04;7.37;;;5.90;;
7517;SDS011;3800;48.922;9.444;2023-10-08T07:15:33;9.30;;;5.77;;
7517;SDS011;3800;48.922;9.444;2023-10-08T07:18:01;9.07;;;5.87;;
7517;SDS011;3800;48.922;9.444;2023-10-08T07:20:29;7.70;;;5.40;;
7517;SDS011;3800;48.922;9.444;2023-10-08T07:22:58;7.40;;;5.30;;
7517;SDS011;3800;48.922;9.444;2023-10-08T07:25:27;7.60;;;5.63;;
7517;SDS011;3800;48.922;9.444;2023-10-08T07:27:56;7.20;;;5.93;;
7517;SDS011;3800;48.922;9.444;2023-10-08T07:30:24;6.73;;;5.80;;
7517;SDS011;3800;48.922;9.444;2023-10-08T07:32:55;10.67;;;7.27;;
7517;SDS011;3800;48.922;9.444;2023-10-08T07:35:23;7.90;;;6.40;;
7517;SDS011;3800;48.922;9.444;2023-10-08T07:37:53;8.43;;;6.13;;
7517;SDS011;3800;48.922;9.444;2023-10-08T07:40:21;9.13;;;5.80;;
7517;SDS011;3800;48.922;9.444;2023-10-08T07:42:50;7.37;;;5.73;;
7517;SDS011;3800;48.922;9.444;2023-10-08T07:45:20;8.80;;;5.97;;
7517;SDS011;3800;48.922;9.444;2023-10-08T07:47:49;8.73;;;6.87;;
7517;SDS011;3800;48.922;9.444;2023-10-08T07:50:18;9.50;;;7.90;;
7517;SDS011;3800;48.922;9.444;2023-10-08T07:52:46;7.87;;;6.60;;
7517;SDS011;3800;48.922;9.444;2023-10-08T07:55:15;9.67;;;6.53;;
7517;SDS011;3800;48.922;9.444;2023-10-08T07:57:43;8.33;;;6.03;;
7517;SDS011;3800;48.922;9.444;2023-10-08T08:00:11;8.43;;;5.83;;
7517;SDS011;3800;48.922;9.444;2023-10-08T08:02:44;7.57;;;6.10;;
7517;SDS011;3800;48.922;9.444;2023-10-08T08:05:15;8.77;;;4.80;;
7517;SDS011;3800;48.922;9.444;2023-10-08T08:07:43;7.93;;;4.93;;
7517;SDS011;3800;48.922;9.444;2023-10-08T08:10:13;8.17;;;5.20;;
7517;SDS011;3800;48.922;9.444;2023-10-08T08:12:42;7.33;;;5.20;;
7517;SDS011;3800;48.922;9.444;2023-10-08T08:15:10;7.23;;;5.70;;
7517;SDS011;3800;48.922;9.444;2023-10-08T08:17:43;7.13;;;5.30;;
7517;SDS011;3800;48.922;9.444;2023-10-08T08:20:14;8.50;;;5.33;;
7517;SDS011;3800;48.922;9.444;2023-10-08T08:22:45;7.23;;;5.50;;
7517;SDS011;3800;48.922;9.444;2023-10-08T08:25:19;7.70;;;5.60;;
7517;SDS011;3800;48.922;9.444;2023-10-08T08:27:53;7.73;;;5.70;;
7517;SDS011;3800;48.922;9.444;2023-10-08T08:30:23;7.57;;;5.50;;
7517;SDS011;3800;48.922;9.444;2023-10-08T08:32:52;10.83;;;5.80;;
7517;SDS011;3800;48.922;9.444;2023-10-08T08:35:20;8.17;;;5.17;;
7517;SDS011;3800;48.922;9.444;2023-10-08T08:37:48;6.30;;;5.13;;
7517;SDS011;3800;48.922;9.444;2023-10-08T08:40:18;10.70;;;4.80;;
7517;SDS011;3800;48.922;9.444;2023-10-08T08:42:47;6.43;;;4.53;;
7517;SDS011;3800;48.922;9.444;2023-10-08T08:45:18;5.83;;;4.27;;
7517;SDS011;3800;48.922;9.444;2023-10-08T08:47:47;6.37;;;4.20;;
7517;SDS011;3800;48.922;9.444;2023-10-08T08:50:16;6.07;;;4.23;;
7517;SDS011;3800;48.922;9.444;2023-10-08T08:52:44;6.40;;;4.17;;
7517;SDS011;3800;48.922;9.444;2023-10-08T08:55:12;7.37;;;4.90;;
7517;SDS011;3800;48.922;9.444;2023-10-08T08:57:42;5.53;;;4.30;;
7517;SDS011;3800;48.922;9.444;2023-10-08T09:00:11;6.87;;;4.90;;
7517;SDS011;3800;48.922;9.444;2023-10-08T09:02:40;7.63;;;5.07;;
7517;SDS011;3800;48.922;9.444;2023-10-08T09:05:08;8.50;;;4.90;;
7517;SDS011;3800;48.922;9.444;2023-10-08T09:07:58;7.53;;;4.70;;
7517;SDS011;3800;48.922;9.444;2023-10-08T09:10:30;7.23;;;4.40;;
7517;SDS011;3800;48.922;9.444;2023-10-08T09:12:58;5.77;;;4.33;;
7517;SDS011;3800;48.922;9.444;2023-10-08T09:15:28;6.47;;;4.50;;
7517;SDS011;3800;48.922;9.444;2023-10-08T09:20:53;6.27;;;4.13;;
7517;SDS011;3800;48.922;9.444;2023-10-08T09:23:22;7.23;;;4.63;;
7517;SDS011;3800;48.922;9.444;2023-10-08T09:25:51;8.10;;;4.10;;
7517;SDS011;3800;48.922;9.444;2023-10-08T09:28:19;7.77;;;4.27;;
7517;SDS011;3800;48.922;9.444;2023-10-08T09:30:50;8.13;;;4.40;;
7517;SDS011;3800;48.922;9.444;2023-10-08T09:33:18;8.33;;;4.27;;
7517;SDS011;3800;48.922;9.444;2023-10-08T09:35:46;6.73;;;4.23;;
7517;SDS011;3800;48.922;9.444;2023-10-08T09:38:15;6.03;;;4.37;;
7517;SDS011;3800;48.922;9.444;2023-10-08T09:40:44;9.20;;;4.27;;
7517;SDS011;3800;48.922;9.444;2023-10-08T09:43:14;6.07;;;3.77;;
7517;SDS011;3800;48.922;9.444;2023-10-08T09:45:46;6.67;;;4.63;;
7517;SDS011;3800;48.922;9.444;2023-10-08T09:48:15;7.67;;;4.13;;
7517;SDS011;3800;48.922;9.444;2023-10-08T09:50:44;6.13;;;3.47;;
7517;SDS011;3800;48.922;9.444;2023-10-08T09:53:12;6.73;;;4.10;;
7517;SDS011;3800;48.922;9.444;2023-10-08T09:55:45;5.00;;;3.70;;
7517;SDS011;3800;48.922;9.444;2023-10-08T09:58:27;5.93;;;4.07;;
7517;SDS011;3800;48.922;9.444;2023-10-08T10:00:56;5.97;;;3.30;;
7517;SDS011;3800;48.922;9.444;2023-10-08T10:03:25;5.37;;;3.90;;
7517;SDS011;3800;48.922;9.444;2023-10-08T10:05:53;8.67;;;6.20;;
7517;SDS011;3800;48.922;9.444;2023-10-08T10:08:23;6.90;;;4.07;;
7517;SDS011;3800;48.922;9.444;2023-10-08T10:10:59;9.83;;;4.43;;
7517;SDS011;3800;48.922;9.444;2023-10-08T10:13:28;8.33;;;4.10;;
7517;SDS011;3800;48.922;9.444;2023-10-08T10:15:56;5.67;;;3.97;;
7517;SDS011;3800;48.922;9.444;2023-10-08T10:18:28;5.37;;;3.53;;
7517;SDS011;3800;48.922;9.444;2023-10-08T10:20:58;8.03;;;3.93;;
7517;SDS011;3800;48.922;9.444;2023-10-08T10:23:35;7.63;;;3.70;;
7517;SDS011;3800;48.922;9.444;2023-10-08T10:26:04;5.13;;;3.73;;
7517;SDS011;3800;48.922;9.444;2023-10-08T10:28:33;5.83;;;3.70;;
7517;SDS011;3800;48.922;9.444;2023-10-08T10:31:04;5.20;;;3.50;;
7517;SDS011;3800;48.922;9.444;2023-10-08T10:33:36;7.93;;;3.70;;
7517;SDS011;3800;48.922;9.444;2023-10-08T10:36:06;7.47;;;3.93;;
7517;SDS011;3800;48.922;9.444;2023-10-08T10:38:34;6.40;;;3.90;;
7517;SDS011;3800;48.922;9.444;2023-10-08T10:41:10;7.97;;;3.80;;
7517;SDS011;3800;48.922;9.444;2023-10-08T10:43:39;6.00;;;3.47;;
7517;SDS011;3800;48.922;9.444;2023-10-08T10:46:08;5.97;;;4.37;;
7517;SDS011;3800;48.922;9.444;2023-10-08T10:48:42;5.63;;;3.53;;
7517;SDS011;3800;48.922;9.444;2023-10-08T10:51:11;7.33;;;3.73;;
7517;SDS011;3800;48.922;9.444;2023-10-08T10:53:40;6.10;;;3.30;;
7517;SDS011;3800;48.922;9.444;2023-10-08T10:56:12;5.97;;;3.70;;
7517;SDS011;3800;48.922;9.444;2023-10-08T10:58:41;6.57;;;3.97;;
7517;SDS011;3800;48.922;9.444;2023-10-08T11:01:11;6.07;;;3.70;;
7517;SDS011;3800;48.922;9.444;2023-10-08T11:03:56;8.03;;;3.80;;
7517;SDS011;3800;48.922;9.444;2023-10-08T11:06:25;5.47;;;4.00;;
7517;SDS011;3800;48.922;9.444;2023-10-08T11:08:53;4.80;;;3.60;;
7517;SDS011;3800;48.922;9.444;2023-10-08T11:11:26;9.53;;;4.13;;
7517;SDS011;3800;48.922;9.444;2023-10-08T11:13:56;8.07;;;3.80;;
7517;SDS011;3800;48.922;9.444;2023-10-08T11:16:24;7.17;;;3.67;;
7517;SDS011;3800;48.922;9.444;2023-10-08T11:18:53;6.03;;;3.70;;
7517;SDS011;3800;48.922;9.444;2023-10-08T11:21:20;5.80;;;3.90;;
7517;SDS011;3800;48.922;9.444;2023-10-08T11:23:51;7.00;;;3.90;;
7517;SDS011;3800;48.922;9.444;2023-10-08T11:26:20;9.07;;;4.17;;
7517;SDS011;3800;48.922;9.444;2023-10-08T11:28:52;6.40;;;3.80;;
7517;SDS011;3800;48.922;9.444;2023-10-08T11:31:24;7.23;;;3.87;;
7517;SDS011;3800;48.922;9.444;2023-10-08T11:33:52;5.27;;;3.63;;
7517;SDS011;3800;48.922;9.444;2023-10-08T11:36:22;5.37;;;3.30;;
7517;SDS011;3800;48.922;9.444;2023-10-08T11:38:56;6.63;;;3.87;;
7517;SDS011;3800;48.922;9.444;2023-10-08T11:41:29;6.73;;;3.50;;
7517;SDS011;3800;48.922;9.444;2023-10-08T11:44:02;6.63;;;3.50;;
7517;SDS011;3800;48.922;9.444;2023-10-08T11:46:31;8.07;;;4.23;;
7517;SDS011;3800;48.922;9.444;2023-10-08T11:49:01;6.43;;;4.07;;
7517;SDS011;3800;48.922;9.444;2023-10-08T11:51:33;8.47;;;4.03;;
7517;SDS011;3800;48.922;9.444;2023-10-08T11:54:02;6.57;;;3.87;;
7517;SDS011;3800;48.922;9.444;2023-10-08T11:56:32;5.47;;;3.60;;
7517;SDS011;3800;48.922;9.444;2023-10-08T11:59:01;5.00;;;3.63;;
7517;SDS011;3800;48.922;9.444;2023-10-08T12:01:32;7.47;;;4.23;;
7517;SDS011;3800;48.922;9.444;2023-10-08T12:04:01;5.83;;;3.47;;
7517;SDS011;3800;48.922;9.444;2023-10-08T12:06:30;7.43;;;4.07;;
7517;SDS011;3800;48.922;9.444;2023-10-08T12:08:59;7.93;;;4.23;;
7517;SDS011;3800;48.922;9.444;2023-10-08T12:11:29;9.37;;;3.77;;
7517;SDS011;3800;48.922;9.444;2023-10-08T12:13:59;6.53;;;4.00;;
7517;SDS011;3800;48.922;9.444;2023-10-08T12:16:28;6.67;;;3.73;;
7517;SDS011;3800;48.922;9.444;2023-10-08T12:18:57;7.73;;;3.47;;
7517;SDS011;3800;48.922;9.444;2023-10-08T12:21:26;6.13;;;4.10;;
7517;SDS011;3800;48.922;9.444;2023-10-08T12:23:57;7.13;;;3.87;;
7517;SDS011;3800;48.922;9.444;2023-10-08T12:26:25;5.70;;;3.63;;
7517;SDS011;3800;48.922;9.444;2023-10-08T12:28:55;6.73;;;3.93;;
7517;SDS011;3800;48.922;9.444;2023-10-08T12:31:23;6.80;;;3.80;;
7517;SDS011;3800;48.922;9.444;2023-10-08T12:33:52;6.20;;;3.53;;
7517;SDS011;3800;48.922;9.444;2023-10-08T12:36:21;5.80;;;3.63;;
7517;SDS011;3800;48.922;9.444;2023-10-08T12:38:51;7.20;;;3.90;;
7517;SDS011;3800;48.922;9.444;2023-10-08T12:41:25;6.07;;;3.60;;
7517;SDS011;3800;48.922;9.444;2023-10-08T12:43:54;8.57;;;3.77;;
7517;SDS011;3800;48.922;9.444;2023-10-08T12:46:23;5.83;;;3.70;;
7517;SDS011;3800;48.922;9.444;2023-10-08T12:48:52;6.47;;;3.73;;
7517;SDS011;3800;48.922;9.444;2023-10-08T12:51:21;6.80;;;3.70;;
7517;SDS011;3800;48.922;9.444;2023-10-08T12:53:51;7.27;;;3.47;;
7517;SDS011;3800;48.922;9.444;2023-10-08T12:56:26;8.07;;;3.80;;
7517;SDS011;3800;48.922;9.444;2023-10-08T12:59:00;6.77;;;4.37;;
7517;SDS011;3800;48.922;9.444;2023-10-08T13:01:28;8.50;;;3.57;;
7517;SDS011;3800;48.922;9.444;2023-10-08T13:03:56;7.53;;;3.90;;
7517;SDS011;3800;48.922;9.444;2023-10-08T13:06:27;11.83;;;4.00;;
7517;SDS011;3800;48.922;9.444;2023-10-08T13:08:57;7.83;;;4.20;;
7517;SDS011;3800;48.922;9.444;2023-10-08T13:11:25;6.47;;;4.17;;
7517;SDS011;3800;48.922;9.444;2023-10-08T13:13:53;8.13;;;3.87;;
7517;SDS011;3800;48.922;9.444;2023-10-08T13:16:23;5.57;;;3.57;;
7517;SDS011;3800;48.922;9.444;2023-10-08T13:18:52;8.43;;;4.03;;
7517;SDS011;3800;48.922;9.444;2023-10-08T13:21:20;6.13;;;3.77;;
7517;SDS011;3800;48.922;9.444;2023-10-08T13:23:48;8.13;;;3.73;;
7517;SDS011;3800;48.922;9.444;2023-10-08T13:26:17;8.40;;;3.87;;
7517;SDS011;3800;48.922;9.444;2023-10-08T13:28:46;7.23;;;3.80;;
7517;SDS011;3800;48.922;9.444;2023-10-08T13:31:14;7.03;;;3.93;;
7517;SDS011;3800;48.922;9.444;2023-10-08T13:33:43;6.60;;;3.73;;
7517;SDS011;3800;48.922;9.444;2023-10-08T13:36:11;5.67;;;3.60;;
7517;SDS011;3800;48.922;9.444;2023-10-08T13:38:39;8.50;;;4.47;;
7517;SDS011;3800;48.922;9.444;2023-10-08T13:41:08;8.57;;;3.90;;
7517;SDS011;3800;48.922;9.444;2023-10-08T13:43:42;6.90;;;3.87;;
7517;SDS011;3800;48.922;9.444;2023-10-08T13:46:14;9.13;;;4.17;;
7517;SDS011;3800;48.922;9.444;2023-10-08T13:48:42;7.73;;;4.33;;
7517;SDS011;3800;48.922;9.444;2023-10-08T13:51:10;7.60;;;4.33;;
7517;SDS011;3800;48.922;9.444;2023-10-08T13:53:41;5.13;;;3.60;;
7517;SDS011;3800;48.922;9.444;2023-10-08T13:56:11;6.93;;;3.83;;
7517;SDS011;3800;48.922;9.444;2023-10-08T13:58:40;7.57;;;4.10;;
7517;SDS011;3800;48.922;9.444;2023-10-08T14:01:09;8.67;;;3.80;;
7517;SDS011;3800;48.922;9.444;2023-10-08T14:03:38;6.27;;;4.27;;
7517;SDS011;3800;48.922;9.444;2023-10-08T14:06:06;12.20;;;4.47;;
7517;SDS011;3800;48.922;9.444;2023-10-08T14:08:36;11.00;;;6.40;;
7517;SDS011;3800;48.922;9.444;2023-10-08T14:11:04;9.90;;;4.53;;
7517;SDS011;3800;48.922;9.444;2023-10-08T14:13:32;7.43;;;3.80;;
7517;SDS011;3800;48.922;9.444;2023-10-08T14:16:02;9.27;;;4.03;;
7517;SDS011;3800;48.922;9.444;2023-10-08T14:18:29;8.30;;;3.93;;
7517;SDS011;3800;48.922;9.444;2023-10-08T14:20:58;7.60;;;4.10;;
7517;SDS011;3800;48.922;9.444;2023-10-08T14:23:26;8.67;;;4.17;;
7517;SDS011;3800;48.922;9.444;2023-10-08T14:25:55;8.10;;;3.97;;
7517;SDS011;3800;48.922;9.444;2023-10-08T14:28:23;11.43;;;3.93;;
7517;SDS011;3800;48.922;9.444;2023-10-08T14:30:53;9.63;;;3.93;;
7517;SDS011;3800;48.922;9.444;2023-10-08T14:33:21;8.20;;;4.10;;
7517;SDS011;3800;48.922;9.444;2023-10-08T14:35:51;9.13;;;4.00;;
7517;SDS011;3800;48.922;9.444;2023-10-08T14:38:25;7.93;;;4.20;;
7517;SDS011;3800;48.922;9.444;2023-10-08T14:40:58;7.67;;;3.87;;
7517;SDS011;3800;48.922;9.444;2023-10-08T14:43:32;8.53;;;3.73;;
7517;SDS011;3800;48.922;9.444;2023-10-08T14:46:01;8.27;;;3.77;;
7517;SDS011;3800;48.922;9.444;2023-10-08T14:48:29;7.53;;;4.20;;
7517;SDS011;3800;48.922;9.444;2023-10-08T14:50:57;6.87;;;3.80;;
7517;SDS011;3800;48.922;9.444;2023-10-08T14:53:25;8.97;;;4.00;;
7517;SDS011;3800;48.922;9.444;2023-10-08T14:55:54;8.13;;;4.10;;
7517;SDS011;3800;48.922;9.444;2023-10-08T14:58:23;7.50;;;3.87;;
7517;SDS011;3800;48.922;9.444;2023-10-08T15:00:51;6.17;;;3.80;;
7517;SDS011;3800;48.922;9.444;2023-10-08T15:03:19;8.23;;;4.30;;
7517;SDS011;3800;48.922;9.444;2023-10-08T15:05:48;8.00;;;4.13;;
7517;SDS011;3800;48.922;9.444;2023-10-08T15:08:16;6.43;;;3.60;;
7517;SDS011;3800;48.922;9.444;2023-10-08T15:10:45;7.17;;;4.00;;
7517;SDS011;3800;48.922;9.444;2023-10-08T15:13:13;8.23;;;4.30;;
7517;SDS011;3800;48.922;9.444;2023-10-08T15:15:41;6.40;;;3.70;;
7517;SDS011;3800;48.922;9.444;2023-10-08T15:18:09;5.47;;;3.63;;
7517;SDS011;3800;48.922;9.444;2023-10-08T15:20:38;6.63;;;4.10;;
7517;SDS011;3800;48.922;9.444;2023-10-08T15:23:07;5.60;;;3.70;;
7517;SDS011;3800;48.922;9.444;2023-10-08T15:25:36;5.87;;;3.80;;
7517;SDS011;3800;48.922;9.444;2023-10-08T15:28:04;7.77;;;3.80;;
7517;SDS011;3800;48.922;9.444;2023-10-08T15:30:32;5.97;;;3.90;;
7517;SDS011;3800;48.922;9.444;2023-10-08T15:33:01;5.93;;;3.67;;
7517;SDS011;3800;48.922;9.444;2023-10-08T15:35:29;6.53;;;3.67;;